Time;durP1;ratioP1;P1;durP2;ratioP2;P2;SDS_P1;SDS_P2;PMS_P1;PMS_P2;Temp;Humidity;BMP_temperature;BMP_pressure;BME280_temperature;BME280_humidity;BME280_pressure;Samples;Min_cycle;Max_cycle;Signal;HPM_P1;HPM_P2
2022/06/01 00:00:09;;;;;;;5.00;4.60;;;;;;;;;;5030045;28;20488;-81
2022/06/01 00:02:35;;;;;;;4.80;4.40;;;;;;;;;;5024242;28;20469;-80
2022/06/01 00:05:01;;;;;;;5.17;4.67;;;;;;;;;;5031851;28;20480;-83
2022/06/01 00:07:28;;;;;;;4.87;4.47;;;;;;;;;;5031653;28;20480;-79
2022/06/01 00:09:55;;;;;;;4.70;4.40;;;;;;;;;;5029388;28;20887;-80
2022/06/01 00:12:22;;;;;;;5.27;4.70;;;;;;;;;;5034095;28;20453;-80
2022/06/01 00:14:48;;;;;;;5.03;4.63;;;;;;;;;;5034289;28;20482;-82
2022/06/01 00:17:15;;;;;;;4.80;4.40;;;;;;;;;;5035299;28;21009;-79
2022/06/01 00:19:42;;;;;;;5.40;4.90;;;;;;;;;;5034132;28;20468;-80
2022/06/01 00:22:14;;;;;;;5.10;4.20;;;;;;;;;;5028583;28;20460;-80
2022/06/01 00:24:40;;;;;;;5.03;4.63;;;;;;;;;;5028691;28;21055;-80
2022/06/01 00:27:09;;;;;;;4.77;4.10;;;;;;;;;;5027866;28;20492;-81
2022/06/01 00:29:36;;;;;;;5.00;4.50;;;;;;;;;;5026181;28;20473;-81
2022/06/01 00:32:02;;;;;;;5.30;4.80;;;;;;;;;;5030903;28;20477;-82
2022/06/01 00:34:29;;;;;;;5.10;4.33;;;;;;;;;;5026946;28;20473;-80
2022/06/01 00:36:55;;;;;;;5.70;4.30;;;;;;;;;;5028826;28;20485;-79
2022/06/01 00:39:22;;;;;;;5.10;4.67;;;;;;;;;;5029661;28;20481;-80
2022/06/01 00:41:48;;;;;;;4.83;4.30;;;;;;;;;;5028902;28;20465;-81
2022/06/01 00:44:16;;;;;;;5.47;4.80;;;;;;;;;;5027302;28;20480;-81
2022/06/01 00:46:42;;;;;;;4.70;4.30;;;;;;;;;;5029232;28;20490;-80
2022/06/01 00:49:12;;;;;;;4.90;4.37;;;;;;;;;;5030733;28;20473;-80
2022/06/01 00:51:38;;;;;;;6.20;4.60;;;;;;;;;;5034953;28;20834;-80
2022/06/01 00:54:05;;;;;;;4.67;4.17;;;;;;;;;;5033521;28;20472;-79
2022/06/01 00:56:33;;;;;;;5.70;5.20;;;;;;;;;;5033759;28;20527;-80
2022/06/01 00:59:01;;;;;;;5.60;4.67;;;;;;;;;;5025162;28;21104;-79
2022/06/01 01:01:30;;;;;;;5.23;4.80;;;;;;;;;;5031663;28;20470;-81
2022/06/01 01:03:58;;;;;;;4.87;4.40;;;;;;;;;;5031880;28;20985;-83
2022/06/01 01:06:26;;;;;;;5.00;4.60;;;;;;;;;;5030022;28;20449;-79
2022/06/01 01:08:52;;;;;;;4.67;4.07;;;;;;;;;;5031699;28;20555;-80
2022/06/01 01:11:21;;;;;;;11.03;3.97;;;;;;;;;;5027927;28;20449;-80
2022/06/01 01:13:49;;;;;;;5.23;4.70;;;;;;;;;;5030914;28;20853;-82
2022/06/01 01:16:16;;;;;;;8.80;5.33;;;;;;;;;;5031267;28;20805;-80
2022/06/01 01:18:45;;;;;;;4.87;4.37;;;;;;;;;;5023552;28;20474;-81
2022/06/01 01:21:16;;;;;;;5.63;5.10;;;;;;;;;;5026915;28;20456;-82
2022/06/01 01:23:50;;;;;;;4.80;4.40;;;;;;;;;;5029916;28;20511;-81
2022/06/01 01:26:18;;;;;;;6.23;4.40;;;;;;;;;;5031800;28;20959;-80
2022/06/01 01:28:45;;;;;;;5.50;5.00;;;;;;;;;;5028491;28;20558;-81
2022/06/01 01:31:13;;;;;;;8.50;6.00;;;;;;;;;;5033276;28;20973;-80
2022/06/01 01:33:39;;;;;;;6.53;5.90;;;;;;;;;;5032342;28;20858;-83
2022/06/01 01:36:08;;;;;;;6.23;5.17;;;;;;;;;;5033520;28;20986;-81
2022/06/01 01:38:41;;;;;;;6.50;5.10;;;;;;;;;;5032113;28;20485;-82
2022/06/01 01:41:10;;;;;;;6.83;5.83;;;;;;;;;;5028410;28;20476;-80
2022/06/01 01:43:41;;;;;;;6.57;5.97;;;;;;;;;;5030073;28;20478;-80
2022/06/01 01:46:07;;;;;;;6.00;5.50;;;;;;;;;;5035063;28;20457;-81
2022/06/01 01:48:35;;;;;;;6.23;5.70;;;;;;;;;;5030679;28;20483;-81
2022/06/01 01:51:02;;;;;;;7.63;6.07;;;;;;;;;;5032964;28;20449;-82
2022/06/01 01:53:32;;;;;;;7.13;5.90;;;;;;;;;;5015730;28;20506;-80
2022/06/01 01:56:02;;;;;;;6.80;6.13;;;;;;;;;;5059204;28;20502;-80
2022/06/01 01:58:31;;;;;;;6.30;5.50;;;;;;;;;;5030668;28;20479;-81
2022/06/01 02:01:01;;;;;;;5.97;5.47;;;;;;;;;;5028319;28;20479;-85
2022/06/01 02:03:29;;;;;;;7.73;6.97;;;;;;;;;;5025759;28;20471;-81
2022/06/01 02:06:04;;;;;;;9.37;5.33;;;;;;;;;;5030775;28;20967;-82
2022/06/01 02:08:32;;;;;;;6.97;6.10;;;;;;;;;;5026565;28;20559;-81
2022/06/01 02:13:47;;;;;;;7.17;6.53;;;;;;;;;;5023698;28;20848;-80
2022/06/01 02:16:15;;;;;;;6.60;6.00;;;;;;;;;;5030120;28;20576;-83
2022/06/01 02:18:44;;;;;;;7.83;7.00;;;;;;;;;;5028516;28;20478;-80
2022/06/01 02:21:15;;;;;;;6.60;6.00;;;;;;;;;;5034217;28;20511;-80
2022/06/01 02:23:41;;;;;;;7.40;6.00;;;;;;;;;;5026168;28;20469;-82
2022/06/01 02:26:08;;;;;;;8.60;6.27;;;;;;;;;;5038654;28;20631;-82
2022/06/01 02:28:40;;;;;;;8.57;5.90;;;;;;;;;;5030424;28;20534;-82
2022/06/01 02:31:07;;;;;;;7.60;6.83;;;;;;;;;;5036921;28;20449;-81
2022/06/01 02:33:35;;;;;;;8.57;7.80;;;;;;;;;;5033578;28;20848;-83
2022/06/01 02:36:04;;;;;;;11.50;8.70;;;;;;;;;;5024936;28;20457;-82
2022/06/01 02:38:32;;;;;;;10.37;7.97;;;;;;;;;;5034163;23;20739;-84
2022/06/01 02:41:00;;;;;;;12.40;9.90;;;;;;;;;;5025349;28;20882;-84
2022/06/01 02:43:27;;;;;;;11.27;10.17;;;;;;;;;;5023976;28;20465;-84
2022/06/01 02:45:53;;;;;;;16.93;13.13;;;;;;;;;;5025615;28;20579;-85
2022/06/01 02:48:20;;;;;;;15.30;13.20;;;;;;;;;;5019562;28;20739;-85
2022/06/01 02:50:47;;;;;;;15.90;14.20;;;;;;;;;;5024204;28;20828;-82
2022/06/01 02:53:14;;;;;;;19.67;14.60;;;;;;;;;;5021846;28;20453;-82
2022/06/01 02:55:40;;;;;;;16.00;13.40;;;;;;;;;;5023255;28;20495;-81
2022/06/01 02:58:06;;;;;;;15.10;13.20;;;;;;;;;;5021168;28;21013;-82
2022/06/01 03:00:34;;;;;;;16.90;14.30;;;;;;;;;;5021498;28;20460;-81
2022/06/01 03:03:01;;;;;;;17.77;15.00;;;;;;;;;;5022275;28;20461;-82
2022/06/01 03:05:29;;;;;;;18.67;15.73;;;;;;;;;;5021743;28;21011;-82
2022/06/01 03:07:56;;;;;;;17.53;15.27;;;;;;;;;;5023210;28;21068;-82
2022/06/01 03:10:23;;;;;;;15.70;13.80;;;;;;;;;;5022130;28;20488;-83
2022/06/01 03:12:49;;;;;;;21.30;14.93;;;;;;;;;;5022686;28;20473;-82
2022/06/01 03:15:17;;;;;;;15.03;13.43;;;;;;;;;;5023628;28;20485;-82
2022/06/01 03:17:43;;;;;;;28.67;14.90;;;;;;;;;;5024949;28;20891;-85
2022/06/01 03:20:11;;;;;;;21.97;15.63;;;;;;;;;;5022107;28;20481;-82
2022/06/01 03:22:38;;;;;;;17.70;14.20;;;;;;;;;;5025563;28;20460;-82
2022/06/01 03:25:08;;;;;;;14.97;13.40;;;;;;;;;;5026562;28;20814;-84
2022/06/01 03:27:34;;;;;;;15.17;13.67;;;;;;;;;;5026225;28;20546;-82
2022/06/01 03:30:00;;;;;;;15.20;13.57;;;;;;;;;;5024004;28;20481;-82
2022/06/01 03:32:27;;;;;;;19.27;15.97;;;;;;;;;;5026170;28;20483;-82
2022/06/01 03:34:53;;;;;;;18.53;14.87;;;;;;;;;;5024883;28;20476;-81
2022/06/01 03:37:19;;;;;;;21.77;16.43;;;;;;;;;;5025634;28;20494;-84
2022/06/01 03:39:45;;;;;;;22.83;15.10;;;;;;;;;;5025660;28;20906;-82
2022/06/01 03:42:13;;;;;;;19.63;14.53;;;;;;;;;;5026790;28;20970;-82
2022/06/01 03:47:23;;;;;;;20.03;14.40;;;;;;;;;;5025711;28;20476;-81
2022/06/01 03:49:49;;;;;;;22.50;15.33;;;;;;;;;;5025650;28;20477;-82
2022/06/01 03:52:15;;;;;;;16.70;14.10;;;;;;;;;;5025449;28;20464;-81
2022/06/01 03:54:41;;;;;;;15.23;13.63;;;;;;;;;;5025560;28;21014;-82
2022/06/01 03:57:08;;;;;;;16.93;15.17;;;;;;;;;;5026848;28;20487;-82
2022/06/01 03:59:36;;;;;;;15.70;13.90;;;;;;;;;;5024976;28;20477;-82
2022/06/01 04:02:02;;;;;;;23.43;15.50;;;;;;;;;;5022772;28;21008;-82
2022/06/01 04:04:29;;;;;;;17.27;14.37;;;;;;;;;;5025520;28;20476;-83
2022/06/01 04:06:55;;;;;;;19.70;14.57;;;;;;;;;;5025259;28;20453;-83
2022/06/01 04:09:21;;;;;;;18.30;13.63;;;;;;;;;;5026314;28;20477;-82
2022/06/01 04:11:47;;;;;;;17.43;14.20;;;;;;;;;;5026360;28;20461;-82
2022/06/01 04:14:14;;;;;;;18.30;14.20;;;;;;;;;;5024259;28;21005;-82
2022/06/01 04:16:41;;;;;;;16.40;14.03;;;;;;;;;;5026868;28;20982;-82
2022/06/01 04:19:07;;;;;;;15.00;12.60;;;;;;;;;;5025023;28;20522;-82
2022/06/01 04:21:35;;;;;;;16.50;13.50;;;;;;;;;;5026243;28;20476;-82
2022/06/01 04:24:03;;;;;;;13.37;12.07;;;;;;;;;;5025931;28;20527;-83
2022/06/01 04:26:29;;;;;;;13.57;12.27;;;;;;;;;;5025980;28;20462;-82
2022/06/01 04:28:55;;;;;;;14.00;12.47;;;;;;;;;;5024096;28;20542;-82
2022/06/01 04:31:22;;;;;;;14.40;12.10;;;;;;;;;;5021836;28;20518;-81
2022/06/01 04:33:50;;;;;;;13.77;12.40;;;;;;;;;;5023458;28;20472;-84
2022/06/01 04:36:16;;;;;;;16.67;13.80;;;;;;;;;;5026505;28;20458;-82
2022/06/01 04:38:42;;;;;;;19.40;15.20;;;;;;;;;;5023164;28;20527;-82
2022/06/01 04:41:08;;;;;;;16.30;14.37;;;;;;;;;;5026187;28;20515;-82
2022/06/01 04:43:35;;;;;;;14.70;13.27;;;;;;;;;;5025225;28;20757;-83
2022/06/01 04:46:01;;;;;;;15.53;13.07;;;;;;;;;;5024468;28;22559;-83
2022/06/01 04:48:27;;;;;;;16.37;13.13;;;;;;;;;;5022817;28;20524;-84
2022/06/01 04:50:56;;;;;;;14.77;13.27;;;;;;;;;;5024890;28;20453;-82
2022/06/01 04:53:22;;;;;;;15.73;13.23;;;;;;;;;;5025876;28;20460;-82
2022/06/01 04:55:49;;;;;;;16.20;13.70;;;;;;;;;;5023816;28;20468;-81
2022/06/01 04:58:15;;;;;;;14.60;13.10;;;;;;;;;;5026605;28;20539;-82
2022/06/01 05:00:42;;;;;;;14.07;12.67;;;;;;;;;;5025489;28;20456;-82
2022/06/01 05:03:08;;;;;;;19.60;15.13;;;;;;;;;;5024609;28;21038;-82
2022/06/01 05:05:37;;;;;;;19.43;14.30;;;;;;;;;;5022756;28;20460;-83
2022/06/01 05:08:05;;;;;;;16.93;15.23;;;;;;;;;;5025341;28;20485;-82
2022/06/01 05:10:31;;;;;;;17.93;15.83;;;;;;;;;;5025453;28;20468;-82
2022/06/01 05:12:57;;;;;;;17.93;15.90;;;;;;;;;;5025302;28;20500;-82
2022/06/01 05:15:24;;;;;;;18.10;15.10;;;;;;;;;;5025370;28;20474;-82
2022/06/01 05:17:50;;;;;;;16.80;13.70;;;;;;;;;;5025570;28;20486;-82
2022/06/01 05:20:17;;;;;;;18.40;15.00;;;;;;;;;;5024503;28;20520;-82
2022/06/01 05:22:43;;;;;;;17.17;15.20;;;;;;;;;;5023777;28;20604;-81
2022/06/01 05:25:11;;;;;;;17.30;15.60;;;;;;;;;;5023414;28;20485;-83
2022/06/01 05:27:37;;;;;;;17.33;14.40;;;;;;;;;;5023389;28;21243;-82
2022/06/01 05:30:04;;;;;;;16.67;14.97;;;;;;;;;;5025460;28;20472;-84
2022/06/01 05:32:30;;;;;;;17.30;15.50;;;;;;;;;;5023469;28;20870;-82
2022/06/01 05:34:58;;;;;;;20.57;15.43;;;;;;;;;;5022231;28;20903;-85
2022/06/01 05:37:24;;;;;;;18.13;16.23;;;;;;;;;;5023706;28;20526;-82
2022/06/01 05:39:51;;;;;;;20.23;18.03;;;;;;;;;;5023255;28;20481;-83
2022/06/01 05:42:19;;;;;;;22.67;19.57;;;;;;;;;;5024656;28;20472;-83
2022/06/01 05:44:45;;;;;;;17.93;16.13;;;;;;;;;;5016380;28;20554;-83
2022/06/01 05:47:11;;;;;;;18.90;16.87;;;;;;;;;;5021161;28;20481;-83
2022/06/01 05:49:38;;;;;;;18.97;16.07;;;;;;;;;;5020914;28;20544;-81
2022/06/01 05:52:04;;;;;;;19.13;17.10;;;;;;;;;;5022189;28;21056;-82
2022/06/01 05:54:30;;;;;;;19.83;17.63;;;;;;;;;;5022056;28;20492;-82
2022/06/01 05:56:57;;;;;;;21.83;16.43;;;;;;;;;;5023991;28;20458;-83
2022/06/01 05:59:24;;;;;;;19.57;17.50;;;;;;;;;;5022919;28;21375;-82
2022/06/01 06:01:50;;;;;;;22.83;18.37;;;;;;;;;;5023333;28;20446;-82
2022/06/01 06:04:17;;;;;;;22.33;17.97;;;;;;;;;;5021785;28;20527;-82
2022/06/01 06:06:43;;;;;;;21.37;18.40;;;;;;;;;;5022856;28;20500;-82
2022/06/01 06:09:10;;;;;;;21.40;19.30;;;;;;;;;;5021290;28;20556;-83
2022/06/01 06:11:37;;;;;;;25.03;21.13;;;;;;;;;;5023395;28;20468;-83
2022/06/01 06:14:04;;;;;;;25.03;20.87;;;;;;;;;;5023446;28;20476;-82
2022/06/01 06:16:32;;;;;;;25.90;21.90;;;;;;;;;;5021756;28;20453;-82
2022/06/01 06:18:59;;;;;;;22.53;20.13;;;;;;;;;;5021311;28;20896;-82
2022/06/01 06:21:25;;;;;;;26.87;21.17;;;;;;;;;;5021883;28;20966;-82
2022/06/01 06:23:53;;;;;;;29.17;24.00;;;;;;;;;;5024251;28;21028;-82
2022/06/01 06:26:19;;;;;;;24.53;21.90;;;;;;;;;;5023444;28;20449;-83
2022/06/01 06:28:45;;;;;;;27.70;24.40;;;;;;;;;;5024101;28;20488;-82
2022/06/01 06:31:12;;;;;;;29.03;23.73;;;;;;;;;;5025188;28;20955;-82
2022/06/01 06:33:40;;;;;;;32.90;27.10;;;;;;;;;;5023169;28;21021;-82
2022/06/01 06:36:07;;;;;;;31.70;27.27;;;;;;;;;;5023322;28;20534;-82
2022/06/01 06:38:36;;;;;;;30.30;26.00;;;;;;;;;;5019899;28;20477;-82
2022/06/01 06:41:03;;;;;;;33.53;27.60;;;;;;;;;;5024528;28;20456;-82
2022/06/01 06:43:30;;;;;;;33.33;29.03;;;;;;;;;;5018181;28;20548;-82
2022/06/01 06:45:59;;;;;;;35.13;28.73;;;;;;;;;;5022618;28;20452;-81
2022/06/01 06:48:25;;;;;;;35.57;29.20;;;;;;;;;;5023022;28;20473;-81
2022/06/01 06:50:53;;;;;;;35.20;28.83;;;;;;;;;;5022010;28;20468;-82
2022/06/01 06:53:19;;;;;;;36.37;29.57;;;;;;;;;;5024193;28;20891;-83
2022/06/01 06:55:46;;;;;;;33.70;28.10;;;;;;;;;;5021649;28;20461;-82
2022/06/01 06:58:12;;;;;;;32.00;27.87;;;;;;;;;;5021474;28;20477;-81
2022/06/01 07:00:39;;;;;;;35.07;29.03;;;;;;;;;;5021659;28;20461;-82
2022/06/01 07:03:05;;;;;;;33.73;30.07;;;;;;;;;;5022030;28;20575;-82
2022/06/01 07:08:22;;;;;;;33.57;29.73;;;;;;;;;;5010287;28;20457;-83
2022/06/01 07:10:49;;;;;;;39.77;29.40;;;;;;;;;;5020427;28;20982;-82
2022/06/01 07:13:15;;;;;;;37.23;29.20;;;;;;;;;;5018869;28;21044;-82
2022/06/01 07:15:41;;;;;;;36.47;31.40;;;;;;;;;;5019346;28;20825;-81
2022/06/01 07:18:08;;;;;;;36.57;31.73;;;;;;;;;;5022124;28;20511;-81
2022/06/01 07:20:34;;;;;;;38.70;30.20;;;;;;;;;;5023651;28;20838;-80
2022/06/01 07:23:00;;;;;;;33.20;29.60;;;;;;;;;;5024353;28;20461;-82
2022/06/01 07:25:28;;;;;;;39.13;30.83;;;;;;;;;;5022694;28;20532;-82
2022/06/01 07:27:55;;;;;;;36.20;29.50;;;;;;;;;;5023015;28;20477;-82
2022/06/01 07:30:21;;;;;;;38.93;30.23;;;;;;;;;;5023085;28;21006;-82
2022/06/01 07:32:48;;;;;;;37.83;30.13;;;;;;;;;;5025013;28;20461;-82
2022/06/01 07:35:14;;;;;;;36.10;31.07;;;;;;;;;;5018428;28;20489;-84
2022/06/01 07:43:06;;;;;;;35.10;31.47;;;;;;;;;;4977236;28;20775;-83
2022/06/01 07:45:33;;;;;;;39.57;31.20;;;;;;;;;;5018489;28;20535;-82
2022/06/01 07:47:59;;;;;;;39.90;31.67;;;;;;;;;;5022175;28;20510;-79
2022/06/01 07:50:26;;;;;;;32.30;27.90;;;;;;;;;;5019918;28;20480;-81
2022/06/01 07:52:52;;;;;;;35.67;29.10;;;;;;;;;;5019131;28;20476;-82
2022/06/01 07:55:18;;;;;;;43.97;30.17;;;;;;;;;;5022547;28;21212;-82
2022/06/01 07:57:44;;;;;;;38.77;31.23;;;;;;;;;;5022307;28;20456;-80
2022/06/01 08:00:13;;;;;;;38.00;29.73;;;;;;;;;;5021934;28;20893;-81
2022/06/01 08:02:39;;;;;;;35.80;31.50;;;;;;;;;;5022626;28;20477;-82
2022/06/01 08:05:06;;;;;;;35.07;31.03;;;;;;;;;;5021499;28;21082;-84
2022/06/01 08:07:33;;;;;;;34.20;30.53;;;;;;;;;;5023316;28;20491;-85
2022/06/01 08:10:00;;;;;;;38.77;31.80;;;;;;;;;;5024865;28;20478;-83
2022/06/01 08:15:10;;;;;;;37.57;30.87;;;;;;;;;;5023419;28;20839;-82
2022/06/01 08:17:38;;;;;;;36.47;32.17;;;;;;;;;;5025168;28;20550;-82
2022/06/01 08:20:05;;;;;;;38.87;30.40;;;;;;;;;;5025049;28;20480;-81
2022/06/01 08:22:31;;;;;;;39.37;31.47;;;;;;;;;;5025997;28;20461;-82
2022/06/01 08:24:57;;;;;;;34.17;30.00;;;;;;;;;;5025042;28;20543;-82
2022/06/01 08:27:23;;;;;;;36.47;32.00;;;;;;;;;;5025966;28;20492;-83
2022/06/01 08:29:49;;;;;;;36.40;29.97;;;;;;;;;;5024977;28;20496;-80
2022/06/01 08:32:16;;;;;;;37.10;32.50;;;;;;;;;;5027037;28;20937;-82
2022/06/01 08:34:43;;;;;;;33.90;29.73;;;;;;;;;;5025840;28;20452;-82
2022/06/01 08:37:09;;;;;;;34.10;30.40;;;;;;;;;;5025014;28;20458;-83
2022/06/01 08:39:36;;;;;;;37.63;31.00;;;;;;;;;;5074004;23;20472;-84
2022/06/01 08:42:02;;;;;;;33.13;29.67;;;;;;;;;;5042625;28;20462;-82
2022/06/01 08:44:30;;;;;;;32.60;28.07;;;;;;;;;;5043782;28;20533;-82
2022/06/01 08:46:57;;;;;;;31.53;28.23;;;;;;;;;;5043646;28;20522;-82
2022/06/01 08:49:24;;;;;;;31.77;28.43;;;;;;;;;;5040985;28;20539;-84
2022/06/01 08:51:53;;;;;;;31.43;28.23;;;;;;;;;;5043958;28;20479;-83
2022/06/01 08:54:19;;;;;;;31.60;28.30;;;;;;;;;;5042057;28;20458;-84
2022/06/01 08:56:47;;;;;;;31.07;27.77;;;;;;;;;;5042527;28;20418;-82
2022/06/01 08:59:19;;;;;;;30.77;27.53;;;;;;;;;;5042929;28;20438;-83
2022/06/01 09:01:51;;;;;;;31.27;27.30;;;;;;;;;;5043532;28;20427;-82
2022/06/01 09:04:22;;;;;;;31.57;28.27;;;;;;;;;;5042942;28;20450;-83
2022/06/01 09:06:50;;;;;;;35.50;30.43;;;;;;;;;;5041696;28;20447;-83
2022/06/01 09:09:25;;;;;;;36.40;31.30;;;;;;;;;;5041916;28;20480;-83
2022/06/01 09:11:51;;;;;;;38.30;32.40;;;;;;;;;;5042626;28;20988;-82
2022/06/01 09:14:22;;;;;;;37.70;30.73;;;;;;;;;;5043411;28;21037;-81
2022/06/01 09:16:50;;;;;;;37.00;33.07;;;;;;;;;;5041847;28;20472;-83
2022/06/01 09:19:20;;;;;;;35.80;32.00;;;;;;;;;;5041540;28;20518;-84
2022/06/01 09:24:39;;;;;;;41.87;34.17;;;;;;;;;;5041090;28;20511;-83
2022/06/01 09:27:06;;;;;;;37.67;32.37;;;;;;;;;;5040035;28;20452;-83
2022/06/01 09:29:33;;;;;;;36.63;32.50;;;;;;;;;;5038200;28;20484;-83
2022/06/01 09:32:02;;;;;;;35.13;31.30;;;;;;;;;;5041158;28;20438;-82
2022/06/01 09:34:35;;;;;;;36.10;32.20;;;;;;;;;;5040873;28;21020;-82
2022/06/01 09:37:04;;;;;;;34.13;30.43;;;;;;;;;;5043117;28;20419;-82
2022/06/01 09:39:31;;;;;;;37.70;33.67;;;;;;;;;;5042314;28;20858;-81
2022/06/01 09:42:12;;;;;;;34.00;30.23;;;;;;;;;;5041688;28;21334;-81
2022/06/01 09:44:43;;;;;;;35.70;31.00;;;;;;;;;;5040337;28;20496;-82
2022/06/01 09:47:09;;;;;;;34.00;30.37;;;;;;;;;;5042594;28;20447;-81
2022/06/01 09:49:36;;;;;;;33.20;29.10;;;;;;;;;;5040542;28;20484;-81
2022/06/01 09:52:07;;;;;;;35.40;30.67;;;;;;;;;;5042234;28;20419;-81
2022/06/01 09:54:37;;;;;;;33.93;29.53;;;;;;;;;;5043677;28;20802;-83
2022/06/01 09:57:17;;;;;;;33.60;29.70;;;;;;;;;;5043178;28;20422;-83
2022/06/01 10:08:05;;;;;;;33.93;29.47;;;;;;;;;;5041622;28;20974;-80
2022/06/01 10:10:32;;;;;;;34.90;30.70;;;;;;;;;;5042717;28;20477;-82
2022/06/01 10:13:00;;;;;;;34.27;30.60;;;;;;;;;;5042825;28;20453;-81
2022/06/01 10:15:30;;;;;;;34.37;29.70;;;;;;;;;;5037150;28;20468;-81
2022/06/01 10:17:58;;;;;;;34.37;30.70;;;;;;;;;;5039478;28;20452;-82
2022/06/01 10:20:27;;;;;;;33.70;29.50;;;;;;;;;;5039156;28;20819;-80
2022/06/01 10:22:58;;;;;;;30.43;27.17;;;;;;;;;;5036251;28;20430;-82
2022/06/01 10:25:27;;;;;;;33.33;26.50;;;;;;;;;;5039103;28;20487;-81
2022/06/01 10:27:56;;;;;;;32.80;29.30;;;;;;;;;;5042309;28;20462;-82
2022/06/01 10:30:25;;;;;;;30.23;27.03;;;;;;;;;;5040266;28;20454;-82
2022/06/01 10:32:54;;;;;;;32.10;27.23;;;;;;;;;;5043377;28;20903;-81
2022/06/01 10:35:33;;;;;;;32.17;25.60;;;;;;;;;;5042013;28;20511;-81
2022/06/01 10:38:03;;;;;;;29.73;26.63;;;;;;;;;;5042441;28;20452;-80
2022/06/01 10:40:34;;;;;;;26.67;24.07;;;;;;;;;;5039988;28;20464;-81
2022/06/01 10:43:19;;;;;;;24.43;22.03;;;;;;;;;;5040448;28;20519;-83
2022/06/01 10:45:49;;;;;;;28.60;25.60;;;;;;;;;;5041910;28;20471;-82
2022/06/01 10:48:18;;;;;;;25.97;23.23;;;;;;;;;;5040600;28;20487;-83
2022/06/01 10:50:48;;;;;;;23.40;21.10;;;;;;;;;;5040762;28;20487;-81
2022/06/01 10:53:17;;;;;;;27.83;24.93;;;;;;;;;;5041973;28;20978;-83
2022/06/01 10:55:44;;;;;;;27.50;24.80;;;;;;;;;;5042733;28;20468;-83
2022/06/01 10:58:14;;;;;;;29.33;26.20;;;;;;;;;;5041306;28;20899;-81
2022/06/01 11:00:42;;;;;;;29.57;24.87;;;;;;;;;;5039563;28;20465;-81
2022/06/01 11:03:26;;;;;;;26.33;23.50;;;;;;;;;;5043050;28;20436;-81
2022/06/01 11:05:55;;;;;;;28.30;25.13;;;;;;;;;;5039736;28;20894;-83
2022/06/01 11:08:29;;;;;;;27.67;24.77;;;;;;;;;;5041599;28;20480;-82
2022/06/01 11:11:00;;;;;;;25.27;22.60;;;;;;;;;;5041697;28;20483;-82
2022/06/01 11:13:41;;;;;;;25.57;23.13;;;;;;;;;;5041650;28;20463;-83
2022/06/01 11:16:12;;;;;;;27.20;24.50;;;;;;;;;;5031510;28;21087;-82
2022/06/01 11:18:50;;;;;;;28.90;24.63;;;;;;;;;;5042187;28;20471;-81
2022/06/01 11:21:20;;;;;;;27.60;24.63;;;;;;;;;;5042576;28;20475;-81
2022/06/01 11:23:57;;;;;;;27.83;24.20;;;;;;;;;;5042988;28;20480;-81
2022/06/01 11:26:31;;;;;;;26.80;23.90;;;;;;;;;;5040171;28;20464;-82
2022/06/01 11:29:07;;;;;;;25.93;23.33;;;;;;;;;;5042228;28;20484;-81
2022/06/01 11:31:36;;;;;;;32.90;24.30;;;;;;;;;;5042276;28;20869;-83
2022/06/01 11:34:04;;;;;;;28.73;25.70;;;;;;;;;;5042549;28;20517;-82
2022/06/01 11:36:36;;;;;;;27.60;24.60;;;;;;;;;;5041639;28;20892;-82
2022/06/01 11:39:18;;;;;;;25.90;23.10;;;;;;;;;;5040931;28;21097;-82
2022/06/01 11:41:50;;;;;;;22.77;20.47;;;;;;;;;;5045925;28;20502;-81
2022/06/01 11:44:20;;;;;;;22.40;20.00;;;;;;;;;;5044193;28;20454;-82
2022/06/01 11:46:51;;;;;;;17.80;16.13;;;;;;;;;;5046335;28;20460;-82
2022/06/01 11:49:31;;;;;;;17.57;15.27;;;;;;;;;;5042467;28;21008;-83
2022/06/01 11:52:12;;;;;;;16.90;14.23;;;;;;;;;;5045264;28;21186;-82
2022/06/01 11:54:38;;;;;;;14.17;12.83;;;;;;;;;;5045863;28;20888;-81
2022/06/01 11:57:18;;;;;;;15.40;13.40;;;;;;;;;;5044988;28;20438;-82
2022/06/01 11:59:46;;;;;;;14.47;13.07;;;;;;;;;;5040866;28;20547;-83
2022/06/01 12:02:19;;;;;;;13.27;12.10;;;;;;;;;;5044077;28;20829;-82
2022/06/01 12:04:54;;;;;;;15.37;13.87;;;;;;;;;;5043765;28;20472;-83
2022/06/01 12:07:23;;;;;;;14.87;13.50;;;;;;;;;;5044948;28;20529;-83
2022/06/01 12:09:50;;;;;;;17.80;15.17;;;;;;;;;;5043161;28;20488;-83
2022/06/01 12:12:23;;;;;;;16.20;14.50;;;;;;;;;;5041640;28;20440;-84
2022/06/01 12:14:56;;;;;;;16.30;14.70;;;;;;;;;;5044102;28;20483;-83
2022/06/01 12:17:27;;;;;;;16.80;14.40;;;;;;;;;;5043014;28;20466;-83
2022/06/01 12:20:15;;;;;;;16.67;14.93;;;;;;;;;;5045102;28;20541;-82
2022/06/01 12:28:33;;;;;;;19.80;17.90;;;;;;;;;;5044094;28;20540;-83
2022/06/01 12:31:10;;;;;;;16.47;14.80;;;;;;;;;;5043834;28;20484;-82
2022/06/01 12:33:57;;;;;;;18.93;16.93;;;;;;;;;;5041259;28;20574;-82
2022/06/01 12:36:25;;;;;;;18.30;15.43;;;;;;;;;;5043431;28;20456;-83
2022/06/01 12:38:51;;;;;;;16.07;14.67;;;;;;;;;;5040910;28;21193;-80
2022/06/01 12:41:19;;;;;;;15.17;13.67;;;;;;;;;;5044095;28;20510;-85
2022/06/01 12:43:47;;;;;;;18.70;14.30;;;;;;;;;;5043101;28;20522;-82
2022/06/01 12:46:25;;;;;;;15.30;13.80;;;;;;;;;;5044754;28;20953;-84
2022/06/01 12:48:52;;;;;;;13.60;12.23;;;;;;;;;;5038328;28;20471;-82
2022/06/01 12:51:19;;;;;;;11.27;10.13;;;;;;;;;;5043422;28;20847;-82
2022/06/01 12:53:48;;;;;;;8.90;8.03;;;;;;;;;;5042422;28;20468;-81
2022/06/01 12:56:16;;;;;;;6.70;6.10;;;;;;;;;;5045729;28;20543;-82
2022/06/01 12:58:43;;;;;;;6.47;5.73;;;;;;;;;;5040782;28;20468;-82
2022/06/01 13:01:10;;;;;;;9.17;8.27;;;;;;;;;;5043826;28;20459;-82
2022/06/01 13:03:42;;;;;;;8.77;7.87;;;;;;;;;;5044572;28;20888;-83
2022/06/01 13:06:10;;;;;;;8.97;8.17;;;;;;;;;;5044999;28;20444;-83
2022/06/01 13:08:39;;;;;;;10.60;9.70;;;;;;;;;;5044151;28;20476;-81
2022/06/01 13:11:13;;;;;;;10.80;9.57;;;;;;;;;;5044956;28;20514;-82
2022/06/01 13:13:41;;;;;;;9.10;8.20;;;;;;;;;;5044457;28;20462;-82
2022/06/01 13:16:08;;;;;;;12.00;9.70;;;;;;;;;;5044367;28;20419;-83
2022/06/01 13:18:38;;;;;;;8.23;7.30;;;;;;;;;;5040687;28;20447;-82
2022/06/01 13:21:07;;;;;;;6.30;5.80;;;;;;;;;;5045822;28;20422;-82
2022/06/01 13:23:38;;;;;;;5.90;5.40;;;;;;;;;;5044792;28;21003;-83
2022/06/01 13:26:05;;;;;;;5.17;4.67;;;;;;;;;;5043797;28;20463;-81
2022/06/01 13:28:33;;;;;;;5.67;5.17;;;;;;;;;;5042454;28;20529;-83
2022/06/01 13:31:00;;;;;;;5.90;4.60;;;;;;;;;;5043354;28;20497;-83
2022/06/01 13:33:31;;;;;;;4.53;4.13;;;;;;;;;;5041667;28;20443;-83
2022/06/01 13:35:58;;;;;;;4.50;4.10;;;;;;;;;;5042174;28;20422;-83
2022/06/01 13:38:33;;;;;;;7.63;6.93;;;;;;;;;;5040833;28;20545;-83
2022/06/01 13:41:03;;;;;;;8.70;6.50;;;;;;;;;;5043010;28;20435;-83
2022/06/01 13:43:29;;;;;;;7.00;6.37;;;;;;;;;;5041319;28;20552;-83
2022/06/01 13:45:58;;;;;;;7.10;5.60;;;;;;;;;;5042430;28;20490;-81
2022/06/01 13:48:30;;;;;;;6.70;5.70;;;;;;;;;;5040170;28;21137;-84
2022/06/01 13:50:57;;;;;;;7.10;6.50;;;;;;;;;;5041789;28;20488;-84
2022/06/01 13:53:29;;;;;;;6.67;6.07;;;;;;;;;;5039956;28;20469;-83
2022/06/01 13:56:00;;;;;;;6.43;5.07;;;;;;;;;;5044292;28;20464;-82
2022/06/01 13:58:33;;;;;;;4.70;4.40;;;;;;;;;;5040433;28;20456;-82
2022/06/01 14:01:08;;;;;;;4.40;4.00;;;;;;;;;;5042659;28;20513;-80
2022/06/01 14:03:36;;;;;;;7.27;5.87;;;;;;;;;;5042893;28;20532;-81
2022/06/01 14:06:05;;;;;;;8.13;7.13;;;;;;;;;;5042136;28;20518;-82
2022/06/01 14:08:32;;;;;;;9.53;8.60;;;;;;;;;;5038929;28;21111;-82
2022/06/01 14:10:59;;;;;;;8.10;7.40;;;;;;;;;;5040970;28;20483;-82
2022/06/01 14:13:26;;;;;;;8.67;7.87;;;;;;;;;;5043413;28;20879;-83
2022/06/01 14:15:53;;;;;;;9.03;8.23;;;;;;;;;;5041757;28;20507;-84
2022/06/01 14:18:22;;;;;;;8.30;7.60;;;;;;;;;;5042030;28;20472;-84
2022/06/01 14:20:49;;;;;;;7.73;7.13;;;;;;;;;;5041241;28;20473;-85
2022/06/01 14:23:16;;;;;;;9.77;8.87;;;;;;;;;;5042266;28;20563;-83
2022/06/01 14:28:32;;;;;;;7.70;6.90;;;;;;;;;;5040634;28;20480;-83
2022/06/01 14:30:59;;;;;;;10.53;7.13;;;;;;;;;;5042980;28;21052;-83
2022/06/01 14:33:28;;;;;;;7.30;6.60;;;;;;;;;;5038016;28;20475;-83
2022/06/01 14:35:55;;;;;;;6.90;5.87;;;;;;;;;;5040386;28;20448;-83
2022/06/01 14:38:21;;;;;;;7.67;7.00;;;;;;;;;;5040409;28;20500;-83
2022/06/01 14:40:48;;;;;;;7.80;7.00;;;;;;;;;;5051531;22;20496;-83
2022/06/01 14:43:15;;;;;;;8.00;7.30;;;;;;;;;;5040880;28;20478;-87
2022/06/01 14:45:42;;;;;;;8.63;7.73;;;;;;;;;;5038980;28;20497;-87
2022/06/01 14:48:08;;;;;;;8.00;7.40;;;;;;;;;;5040001;28;20765;-84
2022/06/01 14:50:36;;;;;;;7.50;6.80;;;;;;;;;;5034462;28;20485;-86
2022/06/01 14:53:05;;;;;;;8.10;7.37;;;;;;;;;;5018535;28;20497;-86
2022/06/01 14:55:31;;;;;;;8.40;7.60;;;;;;;;;;5022203;28;20477;-84
2022/06/01 14:57:58;;;;;;;8.40;7.63;;;;;;;;;;5024999;28;20966;-83
2022/06/01 15:00:24;;;;;;;9.67;8.77;;;;;;;;;;5019049;28;20477;-84
2022/06/01 15:02:51;;;;;;;8.80;8.10;;;;;;;;;;5024113;28;20460;-84
2022/06/01 15:05:18;;;;;;;8.80;7.97;;;;;;;;;;5024022;28;21025;-84
2022/06/01 15:07:45;;;;;;;11.50;7.80;;;;;;;;;;5023973;28;21040;-87